createdAt,value
2023-01-19T00:00:37.105Z,7.40
2023-01-19T00:01:37.029Z,7.20
2023-01-19T00:02:37.069Z,6.80
2023-01-19T00:03:37.052Z,7.20
2023-01-19T00:04:36.995Z,7.10
2023-01-19T00:05:36.988Z,7.10
2023-01-19T00:06:36.980Z,7.20
2023-01-19T00:07:36.988Z,7.40
2023-01-19T00:08:36.948Z,6.70
2023-01-19T00:09:36.937Z,6.60
2023-01-19T00:10:36.917Z,7.20
2023-01-19T00:11:36.932Z,7.00
2023-01-19T00:12:36.902Z,7.10
2023-01-19T00:13:36.947Z,7.90
2023-01-19T00:14:36.877Z,7.80
2023-01-19T00:15:36.879Z,7.50
2023-01-19T00:16:36.869Z,7.10
2023-01-19T00:17:36.846Z,7.60
2023-01-19T00:18:36.888Z,7.20
2023-01-19T00:19:36.839Z,6.80
2023-01-19T00:20:36.808Z,6.80
2023-01-19T00:21:36.819Z,7.40
2023-01-19T00:22:36.838Z,7.60
2023-01-19T00:23:36.788Z,7.10
2023-01-19T00:24:36.791Z,7.50
2023-01-19T00:25:36.765Z,7.80
2023-01-19T00:26:36.750Z,7.70
2023-01-19T00:27:36.757Z,7.00
2023-01-19T00:28:36.762Z,6.60
2023-01-19T00:29:36.739Z,8.00
2023-01-19T00:30:36.701Z,7.50
2023-01-19T00:31:36.774Z,7.50
2023-01-19T00:32:36.669Z,6.80
2023-01-19T00:33:36.692Z,8.30
2023-01-19T00:34:36.747Z,7.30
2023-01-19T00:35:36.661Z,7.40
2023-01-19T00:36:36.633Z,8.00
2023-01-19T00:37:36.678Z,7.50
2023-01-19T00:38:36.609Z,7.60
2023-01-19T00:39:36.638Z,8.10
2023-01-19T00:40:36.592Z,7.70
2023-01-19T00:41:36.612Z,7.20
2023-01-19T00:42:36.614Z,7.50
2023-01-19T00:43:36.567Z,7.40
2023-01-19T00:44:36.566Z,8.40
2023-01-19T00:45:36.567Z,6.90
2023-01-19T00:46:36.539Z,8.00
2023-01-19T00:47:36.513Z,7.40
2023-01-19T00:48:36.536Z,7.80
2023-01-19T00:49:36.494Z,7.70
2023-01-19T00:50:36.489Z,7.00
2023-01-19T00:51:36.485Z,7.30
2023-01-19T00:52:36.466Z,8.20
2023-01-19T00:53:36.467Z,7.50
2023-01-19T00:54:36.476Z,7.60
2023-01-19T00:55:36.428Z,7.80
2023-01-19T00:56:36.414Z,7.50
2023-01-19T00:57:36.417Z,7.70
2023-01-19T00:58:36.452Z,7.70
2023-01-19T00:59:36.417Z,7.70
2023-01-19T01:00:36.377Z,7.50
2023-01-19T01:01:45.351Z,7.70
2023-01-19T01:02:37.527Z,7.10
2023-01-19T01:03:36.353Z,7.20
2023-01-19T01:04:36.376Z,7.80
2023-01-19T01:05:36.353Z,7.40
2023-01-19T01:06:36.326Z,7.10
2023-01-19T01:07:36.309Z,7.20
2023-01-19T01:08:36.295Z,7.70
2023-01-19T01:09:36.290Z,7.30
2023-01-19T01:10:36.266Z,7.40
2023-01-19T01:11:36.360Z,7.90
2023-01-19T01:12:36.270Z,8.10
2023-01-19T01:13:36.267Z,7.30
2023-01-19T01:14:36.230Z,7.80
2023-01-19T01:15:36.214Z,7.30
2023-01-19T01:16:36.263Z,7.10
2023-01-19T01:17:36.204Z,7.60
2023-01-19T01:18:36.199Z,7.30
2023-01-19T01:19:36.183Z,7.40
2023-01-19T01:20:36.165Z,8.20
2023-01-19T01:21:36.182Z,7.30
2023-01-19T01:22:36.153Z,7.70
2023-01-19T01:23:36.159Z,7.80
2023-01-19T01:24:36.130Z,7.50
2023-01-19T01:25:36.124Z,7.20
2023-01-19T01:26:36.138Z,7.80
2023-01-19T01:27:36.099Z,7.40
2023-01-19T01:28:36.116Z,7.30
2023-01-19T01:29:36.059Z,7.70
2023-01-19T01:30:36.991Z,7.40
2023-01-19T01:31:36.112Z,7.30
2023-01-19T01:32:36.029Z,7.50
2023-01-19T01:33:40.530Z,7.90
2023-01-19T01:34:37.012Z,7.80
2023-01-19T01:35:36.000Z,7.80
2023-01-19T01:36:36.009Z,7.30
2023-01-19T01:37:36.963Z,7.80
2023-01-19T01:38:36.006Z,7.70
2023-01-19T01:39:35.954Z,7.40
2023-01-19T01:40:36.901Z,8.10
2023-01-19T01:41:35.935Z,7.10
2023-01-19T01:42:35.984Z,7.80
2023-01-19T01:43:35.916Z,7.60
2023-01-19T01:44:35.918Z,7.60
2023-01-19T01:45:35.940Z,7.30
2023-01-19T01:46:35.891Z,8.00
2023-01-19T01:47:35.858Z,7.30
2023-01-19T01:48:35.876Z,7.80
2023-01-19T01:49:35.864Z,7.40
2023-01-19T01:50:36.790Z,6.90
2023-01-19T01:51:35.834Z,7.60
2023-01-19T01:52:35.803Z,7.00
2023-01-19T01:53:35.815Z,7.50
2023-01-19T01:54:35.785Z,7.00
2023-01-19T01:55:35.783Z,7.60
2023-01-19T01:56:35.766Z,7.40
2023-01-19T01:57:35.765Z,7.40
2023-01-19T01:58:35.733Z,6.90
2023-01-19T01:59:35.734Z,7.80
2023-01-19T02:00:35.729Z,7.50
2023-01-19T02:01:35.856Z,7.40
2023-01-19T02:02:35.699Z,7.10
2023-01-19T02:03:35.727Z,7.70
2023-01-19T02:04:35.705Z,7.00
2023-01-19T02:05:35.663Z,8.10
2023-01-19T02:06:35.659Z,7.50
2023-01-19T02:07:35.647Z,7.40
2023-01-19T02:08:35.641Z,8.30
2023-01-19T02:09:35.659Z,7.40
2023-01-19T02:10:35.614Z,8.10
2023-01-19T02:11:35.596Z,7.90
2023-01-19T02:12:35.597Z,7.80
2023-01-19T02:13:35.579Z,7.70
2023-01-19T02:14:35.620Z,7.70
2023-01-19T02:15:35.550Z,8.10
2023-01-19T02:16:35.613Z,7.70
2023-01-19T02:17:35.548Z,7.60
2023-01-19T02:18:35.540Z,7.70
2023-01-19T02:19:35.518Z,7.10
2023-01-19T02:20:35.532Z,8.10
2023-01-19T02:21:35.487Z,7.40
2023-01-19T02:22:35.477Z,7.70
2023-01-19T02:23:35.471Z,7.60
2023-01-19T02:24:35.463Z,7.10
2023-01-19T02:25:35.443Z,7.70
2023-01-19T02:26:35.495Z,7.90
2023-01-19T02:27:35.444Z,7.50
2023-01-19T02:28:35.438Z,7.70
2023-01-19T02:29:35.426Z,7.60
2023-01-19T02:30:35.446Z,7.70
2023-01-19T02:31:35.397Z,7.60
2023-01-19T02:32:35.426Z,7.80
2023-01-19T02:33:35.359Z,7.80
2023-01-19T02:34:35.355Z,7.60
2023-01-19T02:35:35.364Z,7.40
2023-01-19T02:36:35.354Z,7.80
2023-01-19T02:37:35.351Z,7.30
2023-01-19T02:38:35.367Z,8.00
2023-01-19T02:39:35.291Z,7.80
2023-01-19T02:40:35.302Z,8.10
2023-01-19T02:41:35.269Z,8.10
2023-01-19T02:42:35.292Z,7.30
2023-01-19T02:43:35.241Z,7.80
2023-01-19T02:44:35.248Z,7.60
2023-01-19T02:45:35.221Z,7.50
2023-01-19T02:46:35.239Z,7.40
2023-01-19T02:47:35.211Z,7.90
2023-01-19T02:48:35.223Z,7.50
2023-01-19T02:49:35.182Z,7.50
2023-01-19T02:50:35.217Z,7.30
2023-01-19T02:51:35.162Z,7.70
2023-01-19T02:52:35.161Z,7.60
2023-01-19T02:53:36.595Z,7.40
2023-01-19T02:54:35.137Z,7.60
2023-01-19T02:55:35.123Z,7.60
2023-01-19T02:56:35.138Z,8.00
2023-01-19T02:57:35.095Z,7.00
2023-01-19T02:58:35.104Z,7.40
2023-01-19T02:59:35.105Z,7.80
2023-01-19T03:00:35.063Z,7.90
2023-01-19T03:01:35.135Z,7.20
2023-01-19T03:02:35.082Z,7.50
2023-01-19T03:03:35.054Z,7.10
2023-01-19T03:04:35.014Z,7.70
2023-01-19T03:05:35.051Z,7.90
2023-01-19T03:06:35.513Z,7.00
2023-01-19T03:07:35.002Z,8.20
2023-01-19T03:08:35.021Z,6.90
2023-01-19T03:09:34.967Z,7.10
2023-01-19T03:10:34.965Z,8.20
2023-01-19T03:11:34.946Z,7.20
2023-01-19T03:12:34.942Z,7.00
2023-01-19T03:13:34.935Z,7.60
2023-01-19T03:14:34.940Z,7.30
2023-01-19T03:15:34.927Z,7.00
2023-01-19T03:16:34.930Z,7.60
2023-01-19T03:17:34.919Z,7.40
2023-01-19T03:18:34.872Z,7.10
2023-01-19T03:19:34.872Z,7.10
2023-01-19T03:20:34.856Z,7.50
2023-01-19T03:21:34.841Z,6.80
2023-01-19T03:22:34.844Z,6.70
2023-01-19T03:23:34.817Z,7.30
2023-01-19T03:24:36.943Z,7.20
2023-01-19T03:25:34.794Z,6.90
2023-01-19T03:26:34.779Z,6.50
2023-01-19T03:27:34.780Z,7.60
2023-01-19T03:28:34.765Z,7.30
2023-01-19T03:29:34.764Z,6.50
2023-01-19T03:30:34.757Z,7.40
2023-01-19T03:31:34.722Z,6.50
2023-01-19T03:32:34.738Z,7.20
2023-01-19T03:33:34.719Z,6.90
2023-01-19T03:34:34.714Z,6.40
2023-01-19T03:35:34.755Z,7.50
2023-01-19T03:36:34.694Z,6.80
2023-01-19T03:37:34.674Z,6.40
2023-01-19T03:38:34.674Z,6.90
2023-01-19T03:39:34.646Z,7.10
2023-01-19T03:40:34.631Z,6.50
2023-01-19T03:41:34.650Z,7.00
2023-01-19T03:42:34.631Z,6.80
2023-01-19T03:43:34.620Z,7.00
2023-01-19T03:44:34.624Z,6.90
2023-01-19T03:45:34.592Z,6.70
2023-01-19T03:46:34.593Z,6.20
2023-01-19T03:47:34.558Z,6.70
2023-01-19T03:48:34.566Z,6.90
2023-01-19T03:49:34.545Z,6.80
2023-01-19T03:50:34.544Z,7.00
2023-01-19T03:51:34.515Z,6.60
2023-01-19T03:52:34.539Z,6.60
2023-01-19T03:53:34.520Z,6.50
2023-01-19T03:54:34.491Z,6.30
2023-01-19T03:55:34.462Z,6.40
2023-01-19T03:56:34.492Z,6.40
2023-01-19T03:57:34.443Z,6.90
2023-01-19T03:58:34.452Z,6.70
2023-01-19T03:59:34.423Z,6.50
2023-01-19T04:00:34.443Z,7.00
2023-01-19T04:01:34.868Z,6.90
2023-01-19T04:02:34.471Z,6.90
2023-01-19T04:03:34.390Z,6.90
2023-01-19T04:04:34.366Z,7.10
2023-01-19T04:05:34.443Z,7.40
2023-01-19T04:06:34.364Z,7.40
2023-01-19T04:07:34.345Z,7.40
2023-01-19T04:08:34.360Z,7.80
2023-01-19T04:09:34.315Z,7.60
2023-01-19T04:10:34.331Z,7.60
2023-01-19T04:11:34.287Z,8.30
2023-01-19T04:12:34.306Z,8.10
2023-01-19T04:13:34.292Z,8.00
2023-01-19T04:14:34.294Z,8.60
2023-01-19T04:15:34.387Z,8.80
2023-01-19T04:16:34.262Z,8.80
2023-01-19T04:17:34.246Z,8.90
2023-01-19T04:18:34.893Z,9.00
2023-01-19T04:19:34.280Z,8.30
2023-01-19T04:20:34.235Z,8.10
2023-01-19T04:21:34.208Z,8.60
2023-01-19T04:22:34.176Z,8.60
2023-01-19T04:23:34.169Z,7.60
2023-01-19T04:24:34.173Z,8.20
2023-01-19T04:25:34.185Z,8.10
2023-01-19T04:26:34.166Z,7.50
2023-01-19T04:27:34.132Z,8.00
2023-01-19T04:28:34.104Z,7.50
2023-01-19T04:29:34.100Z,8.70
2023-01-19T04:30:34.123Z,8.00
2023-01-19T04:31:34.201Z,7.70
2023-01-19T04:32:34.094Z,8.80
2023-01-19T04:33:34.055Z,9.00
2023-01-19T04:34:34.075Z,8.70
2023-01-19T04:35:34.047Z,8.40
2023-01-19T04:36:34.029Z,9.20
2023-01-19T04:37:34.036Z,8.80
2023-01-19T04:38:34.079Z,8.90
2023-01-19T04:39:34.018Z,9.50
2023-01-19T04:40:33.997Z,9.10
2023-01-19T04:41:34.014Z,8.60
2023-01-19T04:42:33.968Z,8.60
2023-01-19T04:43:33.946Z,9.90
2023-01-19T04:44:34.167Z,9.40
2023-01-19T04:45:33.931Z,9.20
2023-01-19T04:46:33.974Z,9.30
2023-01-19T04:47:34.094Z,10.00
2023-01-19T04:48:35.339Z,9.30
2023-01-19T04:49:33.882Z,8.50
2023-01-19T04:50:33.901Z,9.30
2023-01-19T04:51:33.862Z,10.20
2023-01-19T04:52:33.913Z,9.70
2023-01-19T04:53:33.974Z,9.50
2023-01-19T04:54:33.961Z,9.80
2023-01-19T04:55:33.831Z,10.50
2023-01-19T04:56:34.186Z,9.80
2023-01-19T04:57:33.793Z,9.60
2023-01-19T04:58:34.584Z,10.00
2023-01-19T04:59:33.787Z,9.60
2023-01-19T05:00:35.211Z,10.40
2023-01-19T05:01:33.901Z,10.80
2023-01-19T05:02:33.786Z,10.50
2023-01-19T05:03:34.684Z,11.00
2023-01-19T05:04:33.745Z,9.60
2023-01-19T05:05:33.903Z,10.50
2023-01-19T05:06:34.070Z,10.80
2023-01-19T05:07:33.692Z,11.40
2023-01-19T05:08:33.690Z,11.80
2023-01-19T05:09:33.697Z,11.40
2023-01-19T05:10:33.644Z,11.10
2023-01-19T05:11:33.908Z,12.80
2023-01-19T05:12:34.181Z,12.20
2023-01-19T05:13:33.659Z,10.80
2023-01-19T05:14:34.115Z,12.40
2023-01-19T05:15:33.641Z,11.80
2023-01-19T05:16:33.630Z,12.20
2023-01-19T05:17:34.576Z,12.30
2023-01-19T05:18:33.589Z,12.10
2023-01-19T05:19:33.562Z,12.30
2023-01-19T05:20:33.544Z,12.40
2023-01-19T05:21:33.552Z,12.30
2023-01-19T05:22:33.561Z,13.30
2023-01-19T05:23:33.566Z,13.20
2023-01-19T05:24:33.510Z,14.00
2023-01-19T05:25:33.975Z,12.60
2023-01-19T05:26:33.533Z,13.80
2023-01-19T05:27:33.591Z,12.80
2023-01-19T05:28:33.462Z,13.40
2023-01-19T05:29:33.481Z,12.00
2023-01-19T05:30:33.647Z,13.10
2023-01-19T05:31:33.551Z,13.90
2023-01-19T05:32:34.045Z,12.50
2023-01-19T05:33:33.441Z,13.30
2023-01-19T05:34:33.583Z,13.00
2023-01-19T05:35:36.337Z,13.60
2023-01-19T05:36:33.386Z,13.00
2023-01-19T05:37:33.378Z,12.60
2023-01-19T05:38:35.609Z,13.90
2023-01-19T05:39:33.430Z,13.40
2023-01-19T05:40:33.372Z,12.70
2023-01-19T05:41:33.320Z,13.70
2023-01-19T05:42:33.318Z,12.70
2023-01-19T05:43:33.297Z,13.60
2023-01-19T05:44:33.317Z,13.10
2023-01-19T05:45:33.310Z,13.20
2023-01-19T05:46:33.324Z,13.20
2023-01-19T05:47:33.265Z,11.30
2023-01-19T05:48:33.528Z,12.40
2023-01-19T05:49:33.248Z,12.30
2023-01-19T05:50:33.229Z,12.80
2023-01-19T05:51:33.218Z,13.40
2023-01-19T05:52:33.199Z,13.20
2023-01-19T05:53:33.224Z,11.80
2023-01-19T05:54:33.199Z,11.30
2023-01-19T05:55:33.198Z,12.20
2023-01-19T05:56:33.163Z,11.70
2023-01-19T05:57:33.152Z,11.60
2023-01-19T05:58:33.140Z,11.80
2023-01-19T05:59:33.690Z,11.60
2023-01-19T06:00:33.112Z,11.10
2023-01-19T06:01:33.101Z,11.70
2023-01-19T06:02:33.204Z,11.00
2023-01-19T06:03:33.182Z,10.40
2023-01-19T06:04:33.085Z,10.50
2023-01-19T06:05:33.064Z,9.50
2023-01-19T06:06:33.048Z,9.70
2023-01-19T06:07:33.053Z,10.10
2023-01-19T06:08:33.043Z,9.20
2023-01-19T06:09:33.052Z,9.40
2023-01-19T06:10:33.058Z,9.00
2023-01-19T06:11:33.001Z,9.40
2023-01-19T06:12:32.997Z,10.10
2023-01-19T06:13:32.996Z,8.70
2023-01-19T06:14:32.982Z,9.00
2023-01-19T06:15:32.972Z,8.30
2023-01-19T06:16:33.022Z,8.50
2023-01-19T06:17:32.953Z,8.20
2023-01-19T06:18:32.932Z,9.40
2023-01-19T06:19:32.959Z,8.80
2023-01-19T06:20:32.915Z,8.60
2023-01-19T06:21:32.926Z,9.20
2023-01-19T06:22:32.879Z,8.80
2023-01-19T06:23:32.891Z,8.30
2023-01-19T06:24:32.864Z,8.30
2023-01-19T06:25:32.922Z,9.40
2023-01-19T06:26:32.832Z,8.60
2023-01-19T06:27:32.840Z,8.10
2023-01-19T06:28:32.802Z,8.20
2023-01-19T06:29:32.817Z,8.90
2023-01-19T06:30:32.813Z,8.00
2023-01-19T06:31:32.894Z,7.20
2023-01-19T06:32:32.765Z,8.50
2023-01-19T06:33:32.763Z,7.90
2023-01-19T06:34:32.757Z,7.80
2023-01-19T06:35:32.736Z,8.10
2023-01-19T06:36:32.717Z,8.30
2023-01-19T06:37:32.747Z,7.30
2023-01-19T06:38:32.820Z,7.50
2023-01-19T06:39:32.696Z,8.20
2023-01-19T06:40:32.696Z,8.20
2023-01-19T06:41:32.697Z,8.10
2023-01-19T06:42:32.657Z,7.20
2023-01-19T06:43:32.676Z,7.00
2023-01-19T06:44:32.646Z,7.30
2023-01-19T06:45:32.632Z,7.40
2023-01-19T06:46:32.616Z,7.60
2023-01-19T06:47:32.624Z,7.60
2023-01-19T06:48:32.617Z,7.10
2023-01-19T06:49:32.587Z,6.90
2023-01-19T06:50:32.583Z,7.10
2023-01-19T06:51:32.579Z,7.40
2023-01-19T06:52:32.550Z,7.20
2023-01-19T06:53:32.714Z,7.10
2023-01-19T06:54:32.518Z,6.40
2023-01-19T06:55:32.531Z,6.80
2023-01-19T06:56:32.516Z,7.40
2023-01-19T06:57:32.518Z,7.00
2023-01-19T06:58:32.491Z,7.40
2023-01-19T06:59:32.513Z,7.80
2023-01-19T07:00:32.919Z,7.80
2023-01-19T07:01:32.674Z,7.60
2023-01-19T07:02:32.557Z,8.20
2023-01-19T07:03:32.470Z,8.20
2023-01-19T07:04:32.409Z,8.10
2023-01-19T07:05:32.542Z,9.10
2023-01-19T07:06:32.425Z,8.00
2023-01-19T07:07:32.390Z,8.60
2023-01-19T07:08:32.368Z,14.10
2023-01-19T07:09:32.388Z,15.70
2023-01-19T07:11:22.167Z,27.00
2023-01-19T07:11:33.673Z,9.70
2023-01-19T07:12:32.347Z,9.10
2023-01-19T07:13:33.783Z,8.80
2023-01-19T07:14:32.304Z,9.60
2023-01-19T07:15:32.319Z,8.90
2023-01-19T07:16:32.326Z,9.70
2023-01-19T07:17:32.286Z,9.30
2023-01-19T07:18:32.273Z,9.00
2023-01-19T07:19:32.306Z,10.00
2023-01-19T07:20:32.293Z,9.80
2023-01-19T07:21:32.258Z,9.80
2023-01-19T07:22:32.224Z,8.80
2023-01-19T07:23:32.245Z,8.60
2023-01-19T07:24:32.266Z,9.60
2023-01-19T07:25:33.189Z,9.10
2023-01-19T07:26:32.188Z,8.40
2023-01-19T07:27:32.178Z,9.00
2023-01-19T07:28:32.195Z,9.20
2023-01-19T07:29:32.198Z,8.50
2023-01-19T07:30:32.181Z,9.00
2023-01-19T07:31:32.207Z,9.30
2023-01-19T07:32:32.114Z,8.70
2023-01-19T07:33:32.146Z,8.10
2023-01-19T07:34:32.635Z,8.40
2023-01-19T07:35:32.086Z,8.70
2023-01-19T07:36:32.098Z,9.00
2023-01-19T07:37:32.068Z,8.50
2023-01-19T07:38:32.049Z,9.30
2023-01-19T07:39:32.065Z,9.50
2023-01-19T07:40:32.064Z,9.10
2023-01-19T07:41:32.030Z,8.60
2023-01-19T07:42:32.037Z,8.20
2023-01-19T07:43:31.998Z,9.30
2023-01-19T07:44:31.995Z,8.80
2023-01-19T07:45:31.989Z,9.00
2023-01-19T07:46:31.965Z,8.60
2023-01-19T07:47:31.954Z,9.60
2023-01-19T07:48:31.946Z,8.90
2023-01-19T07:49:31.930Z,9.20
2023-01-19T07:50:31.957Z,9.80
2023-01-19T07:51:31.909Z,9.20
2023-01-19T07:52:31.903Z,9.10
2023-01-19T07:53:31.882Z,9.50
2023-01-19T07:54:31.879Z,9.50
2023-01-19T07:55:31.877Z,9.10
2023-01-19T07:56:32.935Z,10.00
2023-01-19T07:57:31.843Z,9.60
2023-01-19T07:58:31.853Z,26.80
2023-01-19T07:59:31.863Z,10.80
2023-01-19T08:00:31.819Z,10.10
2023-01-19T08:01:32.010Z,9.90
2023-01-19T08:02:31.790Z,9.10
2023-01-19T08:03:31.789Z,9.20
2023-01-19T08:04:31.946Z,9.30
2023-01-19T08:05:31.926Z,9.80
2023-01-19T08:06:31.739Z,9.30
2023-01-19T08:07:31.742Z,9.80
2023-01-19T08:08:31.721Z,9.70
2023-01-19T08:09:31.719Z,9.70
2023-01-19T08:10:32.710Z,10.50
2023-01-19T08:11:31.740Z,9.50
2023-01-19T08:12:31.683Z,9.40
2023-01-19T08:13:31.677Z,10.20
2023-01-19T08:14:31.662Z,10.30
2023-01-19T08:15:33.119Z,10.80
2023-01-19T08:16:31.692Z,10.80
2023-01-19T08:17:31.637Z,10.10
2023-01-19T08:18:32.016Z,10.70
2023-01-19T08:19:31.614Z,11.20
2023-01-19T08:20:31.631Z,11.00
2023-01-19T08:21:31.592Z,11.80
2023-01-19T08:22:31.571Z,10.40
2023-01-19T08:23:31.595Z,11.70
2023-01-19T08:24:31.592Z,11.40
2023-01-19T08:25:31.541Z,11.80
2023-01-19T08:26:31.522Z,11.40
2023-01-19T08:27:31.532Z,12.30
2023-01-19T08:28:31.513Z,12.20
2023-01-19T08:29:31.526Z,11.80
2023-01-19T08:30:32.565Z,12.10
2023-01-19T08:31:31.634Z,12.10
2023-01-19T08:32:31.494Z,12.30
2023-01-19T08:33:31.461Z,11.60
2023-01-19T08:34:31.447Z,12.40
2023-01-19T08:35:31.478Z,12.90
2023-01-19T08:36:31.434Z,12.40
2023-01-19T08:37:33.263Z,11.90
2023-01-19T08:38:31.399Z,13.20
2023-01-19T08:39:31.385Z,12.70
2023-01-19T08:40:31.406Z,12.60
2023-01-19T08:41:31.378Z,12.60
2023-01-19T08:42:31.380Z,12.50
2023-01-19T08:43:31.411Z,12.80
2023-01-19T08:44:31.335Z,13.30
2023-01-19T08:45:31.315Z,19.80
2023-01-19T08:46:31.386Z,24.80
2023-01-19T08:47:31.338Z,15.30
2023-01-19T08:48:31.313Z,13.40
2023-01-19T08:49:31.291Z,13.40
2023-01-19T08:50:31.273Z,12.30
2023-01-19T08:51:31.279Z,13.20
2023-01-19T08:52:31.236Z,13.00
2023-01-19T08:53:31.257Z,12.30
2023-01-19T08:54:31.227Z,13.30
2023-01-19T08:55:32.195Z,13.10
2023-01-19T08:56:31.206Z,13.10
2023-01-19T08:57:31.455Z,13.00
2023-01-19T08:58:31.187Z,12.30
2023-01-19T08:59:31.192Z,12.50
2023-01-19T09:00:31.149Z,12.80
2023-01-19T09:01:31.291Z,12.70
2023-01-19T09:02:31.295Z,11.70
2023-01-19T09:03:31.165Z,15.00
2023-01-19T09:04:31.120Z,16.50
2023-01-19T09:05:31.114Z,14.50
2023-01-19T09:06:31.119Z,12.80
2023-01-19T09:07:32.563Z,12.60
2023-01-19T09:08:31.103Z,12.10
2023-01-19T09:09:31.094Z,12.80
2023-01-19T09:10:31.065Z,13.10
2023-01-19T09:11:31.041Z,12.80
2023-01-19T09:12:31.046Z,13.70
2023-01-19T09:13:31.019Z,12.40
2023-01-19T09:14:31.033Z,13.00
2023-01-19T09:15:31.003Z,12.60
2023-01-19T09:16:31.001Z,13.00
2023-01-19T09:17:30.971Z,12.10
2023-01-19T09:18:30.988Z,13.70
2023-01-19T09:19:30.987Z,14.00
2023-01-19T09:20:31.006Z,13.70
2023-01-19T09:21:30.939Z,14.80
2023-01-19T09:22:30.945Z,14.80
2023-01-19T09:23:30.899Z,15.00
2023-01-19T09:24:30.917Z,14.70
2023-01-19T09:25:30.876Z,14.40
2023-01-19T09:26:32.939Z,14.30
2023-01-19T09:27:30.901Z,14.60
2023-01-19T09:28:30.866Z,13.50
2023-01-19T09:29:30.847Z,14.10
2023-01-19T09:30:30.881Z,14.30
2023-01-19T09:31:30.966Z,14.40
2023-01-19T09:32:30.854Z,14.50
2023-01-19T09:33:30.827Z,13.10
2023-01-19T09:34:30.794Z,14.20
2023-01-19T09:35:30.777Z,14.30
2023-01-19T09:36:30.852Z,14.40
2023-01-19T09:37:30.757Z,15.20
2023-01-19T09:38:30.773Z,15.20
2023-01-19T09:39:30.743Z,15.40
2023-01-19T09:40:30.775Z,14.10
2023-01-19T09:41:30.697Z,13.80
2023-01-19T09:42:30.717Z,14.20
2023-01-19T09:43:30.686Z,14.70
2023-01-19T09:44:30.676Z,14.00
2023-01-19T09:45:30.653Z,14.10
2023-01-19T09:46:30.763Z,16.20
2023-01-19T09:47:30.633Z,16.10
2023-01-19T09:48:30.663Z,15.20
2023-01-19T09:49:30.628Z,15.40
2023-01-19T09:50:30.630Z,15.40
2023-01-19T09:51:30.615Z,15.00
2023-01-19T09:52:31.005Z,15.90
2023-01-19T09:53:30.592Z,16.00
2023-01-19T09:54:30.580Z,15.70
2023-01-19T09:55:30.553Z,15.50
2023-01-19T09:56:30.547Z,16.30
2023-01-19T09:57:30.572Z,16.20
2023-01-19T09:58:30.531Z,15.00
2023-01-19T09:59:30.512Z,16.60
2023-01-19T10:00:30.522Z,17.00
2023-01-19T10:01:30.760Z,17.00
2023-01-19T10:02:31.467Z,16.90
2023-01-19T10:03:30.457Z,16.10
2023-01-19T10:04:30.477Z,18.30
2023-01-19T10:05:30.449Z,17.60
2023-01-19T10:06:30.442Z,17.90
2023-01-19T10:07:30.422Z,18.30
2023-01-19T10:08:30.464Z,17.70
2023-01-19T10:09:30.405Z,18.30
2023-01-19T10:10:30.389Z,17.70
2023-01-19T10:11:38.116Z,17.80
2023-01-19T10:12:31.384Z,19.80
2023-01-19T10:13:30.376Z,17.90
2023-01-19T10:14:30.371Z,19.20
2023-01-19T10:15:30.361Z,21.00
2023-01-19T10:16:30.361Z,21.90
2023-01-19T10:17:30.319Z,21.10
2023-01-19T10:18:30.302Z,21.70
2023-01-19T10:19:30.329Z,21.40
2023-01-19T10:20:30.281Z,19.00
2023-01-19T10:21:31.224Z,20.70
2023-01-19T10:22:30.258Z,18.70
2023-01-19T10:23:30.261Z,19.50
2023-01-19T10:24:30.252Z,21.20
2023-01-19T10:25:30.425Z,22.10
2023-01-19T10:26:30.225Z,21.90
2023-01-19T10:27:30.227Z,21.00
2023-01-19T10:28:30.235Z,21.30
2023-01-19T10:29:30.239Z,22.10
2023-01-19T10:30:30.202Z,21.00
2023-01-19T10:31:30.340Z,19.10
2023-01-19T10:32:30.144Z,19.20
2023-01-19T10:33:30.140Z,19.50
2023-01-19T10:34:30.126Z,20.60
2023-01-19T10:35:30.239Z,19.20
2023-01-19T10:36:30.132Z,19.20
2023-01-19T10:37:30.147Z,21.00
2023-01-19T10:38:31.056Z,20.80
2023-01-19T10:39:30.089Z,20.10
2023-01-19T10:40:30.116Z,19.60
2023-01-19T10:41:30.076Z,20.70
2023-01-19T10:42:30.094Z,20.50
2023-01-19T10:43:30.099Z,19.40
2023-01-19T10:44:30.041Z,19.60
2023-01-19T10:45:30.080Z,19.90
2023-01-19T10:46:30.095Z,21.20
2023-01-19T10:47:30.037Z,19.80
2023-01-19T10:48:30.012Z,18.60
2023-01-19T10:49:30.026Z,17.40
2023-01-19T10:50:30.041Z,17.70
2023-01-19T10:51:29.990Z,18.00
2023-01-19T10:52:30.027Z,18.40
2023-01-19T10:53:29.990Z,17.10
2023-01-19T10:54:29.990Z,17.50
2023-01-19T10:55:29.982Z,17.60
2023-01-19T10:56:29.916Z,18.40
2023-01-19T10:57:29.867Z,17.10
2023-01-19T10:58:29.911Z,16.80
2023-01-19T10:59:29.941Z,17.70
2023-01-19T11:00:29.866Z,17.50
2023-01-19T11:01:29.986Z,16.60
2023-01-19T11:02:29.974Z,18.00
2023-01-19T11:03:29.852Z,16.60
2023-01-19T11:04:29.826Z,16.50
2023-01-19T11:05:29.819Z,16.90
2023-01-19T11:06:29.792Z,16.80
2023-01-19T11:07:29.804Z,17.00
2023-01-19T11:08:29.785Z,16.70
2023-01-19T11:09:29.740Z,16.60
2023-01-19T11:10:29.758Z,17.80
2023-01-19T11:11:29.787Z,17.60
2023-01-19T11:12:29.709Z,16.70
2023-01-19T11:13:29.738Z,18.10
2023-01-19T11:14:29.688Z,17.40
2023-01-19T11:15:29.704Z,18.00
2023-01-19T11:16:29.729Z,17.10
2023-01-19T11:17:29.659Z,17.90
2023-01-19T11:18:29.669Z,17.30
2023-01-19T11:19:29.637Z,18.10
2023-01-19T11:20:29.649Z,17.20
2023-01-19T11:21:29.639Z,17.40
2023-01-19T11:22:29.647Z,17.90
2023-01-19T11:23:29.592Z,17.50
2023-01-19T11:24:29.711Z,18.10
2023-01-19T11:25:29.570Z,18.20
2023-01-19T11:26:29.582Z,18.00
2023-01-19T11:27:29.571Z,17.20
2023-01-19T11:28:29.586Z,17.70
2023-01-19T11:29:29.522Z,17.20
2023-01-19T11:30:29.523Z,17.60
2023-01-19T11:31:29.571Z,17.80
2023-01-19T11:32:29.512Z,17.80
2023-01-19T11:33:29.483Z,17.10
2023-01-19T11:34:29.504Z,17.60
2023-01-19T11:35:30.423Z,16.20
2023-01-19T11:36:29.505Z,16.90
2023-01-19T11:37:29.449Z,16.70
2023-01-19T11:38:29.440Z,17.10
2023-01-19T11:39:29.444Z,16.20
2023-01-19T11:40:29.443Z,16.90
2023-01-19T11:41:29.427Z,17.30
2023-01-19T11:42:29.403Z,17.50
2023-01-19T11:43:43.557Z,16.40
2023-01-19T11:44:30.366Z,17.20
2023-01-19T11:45:29.380Z,18.40
2023-01-19T11:46:29.393Z,17.10
2023-01-19T11:47:29.343Z,17.10
2023-01-19T11:48:29.385Z,16.90
2023-01-19T11:49:29.315Z,16.60
2023-01-19T11:50:29.329Z,17.80
2023-01-19T11:51:29.290Z,16.60
2023-01-19T11:52:29.326Z,17.10
2023-01-19T11:53:29.525Z,17.20
2023-01-19T11:54:30.554Z,16.50
2023-01-19T11:55:29.260Z,17.50
2023-01-19T11:56:29.259Z,15.50
2023-01-19T11:57:29.217Z,16.40
2023-01-19T11:58:29.263Z,16.60
2023-01-19T11:59:29.194Z,16.60
2023-01-19T12:00:29.224Z,17.30
2023-01-19T12:01:29.200Z,17.60
2023-01-19T12:02:29.223Z,17.80
2023-01-19T12:03:29.220Z,16.80
2023-01-19T12:04:29.191Z,16.90
2023-01-19T12:05:29.136Z,17.60
2023-01-19T12:06:29.156Z,15.80
2023-01-19T12:07:29.140Z,17.20
2023-01-19T12:08:29.116Z,16.70
2023-01-19T12:09:29.118Z,16.90
2023-01-19T12:10:29.090Z,17.20
2023-01-19T12:11:29.099Z,16.80
2023-01-19T12:12:29.085Z,17.40
2023-01-19T12:13:29.046Z,16.50
2023-01-19T12:14:29.039Z,16.10
2023-01-19T12:15:29.057Z,17.50
2023-01-19T12:16:29.093Z,16.20
2023-01-19T12:17:29.038Z,16.40
2023-01-19T12:18:29.019Z,17.20
2023-01-19T12:19:28.986Z,16.50
2023-01-19T12:20:28.980Z,16.10
2023-01-19T12:21:28.950Z,17.00
2023-01-19T12:22:29.034Z,16.70
2023-01-19T12:23:28.931Z,16.70
2023-01-19T12:24:29.000Z,17.60
2023-01-19T12:25:28.919Z,16.70
2023-01-19T12:26:28.928Z,16.10
2023-01-19T12:27:28.887Z,16.10
2023-01-19T12:28:28.906Z,16.10
2023-01-19T12:29:28.878Z,16.10
2023-01-19T12:30:28.940Z,16.40
2023-01-19T12:31:29.020Z,16.00
2023-01-19T12:32:28.866Z,14.70
2023-01-19T12:33:30.625Z,15.30
2023-01-19T12:34:28.820Z,15.40
2023-01-19T12:35:28.805Z,15.20
2023-01-19T12:36:29.060Z,15.40
2023-01-19T12:37:28.807Z,15.10
2023-01-19T12:38:28.806Z,15.20
2023-01-19T12:39:28.763Z,14.40
2023-01-19T12:40:28.759Z,15.90
2023-01-19T12:41:28.744Z,14.80
2023-01-19T12:42:29.282Z,15.30
2023-01-19T12:43:28.716Z,15.20
2023-01-19T12:44:28.716Z,14.50
2023-01-19T12:45:30.169Z,15.40
2023-01-19T12:46:28.759Z,14.80
2023-01-19T12:47:28.902Z,14.50
2023-01-19T12:48:28.695Z,15.20
2023-01-19T12:49:28.663Z,14.80
2023-01-19T12:50:28.644Z,14.50
2023-01-19T12:51:28.625Z,13.80
2023-01-19T12:52:28.659Z,13.10
2023-01-19T12:53:28.625Z,13.40
2023-01-19T12:54:28.598Z,12.40
2023-01-19T12:55:28.604Z,13.00
2023-01-19T12:56:29.132Z,12.60
2023-01-19T12:57:28.569Z,12.20
2023-01-19T12:58:28.955Z,12.00
2023-01-19T12:59:28.541Z,11.50
2023-01-19T13:00:28.581Z,13.10
2023-01-19T13:01:28.656Z,11.80
2023-01-19T13:02:28.539Z,12.10
2023-01-19T13:03:28.541Z,11.80
2023-01-19T13:04:28.493Z,12.20
2023-01-19T13:05:30.962Z,12.50
2023-01-19T13:06:28.477Z,12.70